Plainsboro, NJ

3:50 PM EST on November 28, 2014 (GMT -0500)
PPPL | Change Station
CLOSE
Current Station
Personal Weather Station
Location: Princeton, NJ
Elevation: 108 ft
Nearby Weather Stations

Elev 108 ft 40.35 °N, 74.60 °W | Updated 1 minute ago

Clear
Clear
33.7 °F
Feels Like 26 °F
N
9.0
Wind Variable Wind from WNW
Gusts 14.0 mph

Today
High -- | Low -- °F
--% Chance of Precip.
Yesterday
High -- | Low -- °F
Precip. -- in
6:58 AM 4:33 PM
Waxing Crescent, 44% visible
Pressure 30.18 in
Visibility 10.0 miles
Clouds Clear
Windchill 26 °F
Dew Point 16 °F
Humidity 49%
Rainfall 0.02 in
Snow Depth Not available.
UV 1 out of 12
Pollen .10 out of 12
Air Quality Not available.
Flu Activity Not available.
METAR KTTN 281953Z 32009G16KT 10SM CLR 02/M11 A3019 RMK AO2 SLP219 T00171106

More Conditions Fewer Conditions

Pressure 30.18 in
Visibility 10.0 miles
Clouds Clear
Windchill 26 °F
Dew Point 16 °F
Humidity 49%
Rainfall 0.02 in
Snow Depth Not available.
UV 1 out of 12
Pollen .10 out of 12
Air Quality Not available.
Flu Activity Not available.
METAR KTTN 281953Z 32009G16KT 10SM CLR 02/M11 A3019 RMK AO2 SLP219 T00171106

More Conditions Fewer Conditions

10-Day Weather Forecast

Almanac

Astronomy

Nov. 28, 2014 Rise Set
Actual Time
Civil Twilight
Nautical Twilight
Astronomical Twilight
Moon
Length of Visible Light
Length of Day
Tomorrow will be .
, % of the Moon is Illuminated

Today's Extremes

State Highs State Lows

Community

WunderPhotos

Upload Photos

1,774,287 photos uploaded!

WunderBlogs® & News

Nearby

Air Quality

  Air Quality AQ Index Pollutant
Not available.

Snow Depth

Station Depth Elevation

Earthquake Activity

City Distance Mag. Time & Date
Minimum magnitude displayed is 2.5.

Coastal Water Temperatures

Place Temperature

Nearby Weather Stations